createdAt,value
2018-07-01T00:01:46.482Z,14.40
2018-07-01T00:04:14.863Z,14.10
2018-07-01T00:06:43.327Z,14.10
2018-07-01T00:09:11.740Z,14.40
2018-07-01T00:11:40.138Z,14.50
2018-07-01T00:14:08.497Z,14.70
2018-07-01T00:16:36.925Z,14.80
2018-07-01T00:19:05.892Z,14.90
2018-07-01T00:21:34.337Z,14.90
2018-07-01T00:24:02.737Z,14.80
2018-07-01T00:26:31.103Z,14.90
2018-07-01T00:28:59.574Z,15.00
2018-07-01T00:31:27.998Z,15.00
2018-07-01T00:33:56.395Z,15.10
2018-07-01T00:36:24.834Z,15.10
2018-07-01T00:38:54.075Z,15.00
2018-07-01T00:41:22.447Z,15.00
2018-07-01T00:43:50.865Z,15.00
2018-07-01T00:46:19.310Z,14.90
2018-07-01T00:48:47.700Z,14.90
2018-07-01T00:51:16.088Z,14.90
2018-07-01T00:53:44.484Z,14.80
2018-07-01T00:56:12.964Z,14.70
2018-07-01T00:58:41.358Z,14.60
2018-07-01T01:01:09.872Z,14.80
2018-07-01T01:03:38.208Z,14.60
2018-07-01T01:06:06.620Z,14.40
2018-07-01T01:08:35.044Z,14.20
2018-07-01T01:13:31.586Z,13.70
2018-07-01T01:16:00.067Z,13.60
2018-07-01T01:18:28.456Z,13.70
2018-07-01T01:20:56.939Z,13.80
2018-07-01T01:23:25.613Z,13.90
2018-07-01T01:25:54.041Z,14.10
2018-07-01T01:28:22.428Z,14.00
2018-07-01T01:30:50.921Z,14.00
2018-07-01T01:33:19.341Z,14.30
2018-07-01T01:35:48.213Z,14.30
2018-07-01T01:38:16.877Z,14.30
2018-07-01T01:40:50.207Z,14.40
2018-07-01T01:43:23.793Z,14.40
2018-07-01T01:46:01.465Z,14.30
2018-07-01T01:48:34.959Z,14.20
2018-07-01T01:51:14.399Z,14.00
2018-07-01T01:53:46.790Z,13.70
2018-07-01T01:56:23.424Z,13.50
2018-07-01T01:58:56.114Z,13.40
2018-07-01T02:01:43.273Z,13.20
2018-07-01T02:04:16.046Z,13.00
2018-07-01T02:06:47.725Z,12.90
2018-07-01T02:09:20.780Z,12.80
2018-07-01T02:11:51.690Z,12.70
2018-07-01T02:14:25.808Z,13.10
2018-07-01T02:16:57.113Z,13.20
2018-07-01T02:19:25.515Z,13.30
2018-07-01T02:21:54.269Z,13.50
2018-07-01T02:24:37.101Z,13.70
2018-07-01T02:27:05.954Z,13.80
2018-07-01T02:29:34.367Z,13.90
2018-07-01T02:32:02.782Z,13.90
2018-07-01T02:34:31.811Z,13.80
2018-07-01T02:37:00.226Z,13.80
2018-07-01T02:39:28.676Z,13.80
2018-07-01T02:41:57.026Z,13.40
2018-07-01T02:44:25.486Z,13.20
2018-07-01T02:46:53.836Z,13.10
2018-07-01T02:49:22.250Z,13.20
2018-07-01T02:51:50.585Z,13.40
2018-07-01T02:54:18.990Z,13.40
2018-07-01T02:56:48.414Z,13.20
2018-07-01T02:59:16.826Z,12.90
2018-07-01T03:01:45.189Z,12.50
2018-07-01T03:04:13.596Z,12.30
2018-07-01T03:06:41.957Z,12.40
2018-07-01T03:09:12.607Z,12.40
2018-07-01T03:11:41.017Z,12.30
2018-07-01T03:14:09.457Z,12.20
2018-07-01T03:16:37.818Z,12.30
2018-07-01T03:19:06.254Z,12.20
2018-07-01T03:21:34.662Z,12.10
2018-07-01T03:24:03.088Z,12.20
2018-07-01T03:26:31.440Z,12.20
2018-07-01T03:28:59.841Z,12.20
2018-07-01T03:31:28.257Z,12.20
2018-07-01T03:33:56.748Z,12.20
2018-07-01T03:36:25.119Z,12.10
2018-07-01T03:38:53.502Z,12.30
2018-07-01T03:41:21.899Z,12.30
2018-07-01T03:43:53.279Z,12.60
2018-07-01T03:46:21.628Z,12.80
2018-07-01T03:48:50.033Z,13.00
2018-07-01T03:51:18.860Z,13.00
2018-07-01T03:53:47.237Z,13.20
2018-07-01T03:56:15.618Z,13.40
2018-07-01T03:58:43.996Z,13.30
2018-07-01T04:01:12.470Z,13.30
2018-07-01T04:03:40.875Z,13.30
2018-07-01T04:06:09.294Z,13.20
2018-07-01T04:08:37.668Z,13.10
2018-07-01T04:11:06.307Z,13.10
2018-07-01T04:13:34.669Z,13.00
2018-07-01T04:16:03.384Z,13.10
2018-07-01T04:18:31.767Z,13.40
2018-07-01T04:21:00.996Z,13.40
2018-07-01T04:23:29.431Z,13.40
2018-07-01T04:25:57.819Z,13.60
2018-07-01T04:28:26.207Z,13.80
2018-07-01T04:30:54.647Z,13.80
2018-07-01T04:33:22.992Z,13.80
2018-07-01T04:35:51.373Z,13.90
2018-07-01T04:38:19.750Z,13.90
2018-07-01T04:40:48.150Z,14.20
2018-07-01T04:43:16.542Z,14.30
2018-07-01T04:45:44.959Z,14.50
2018-07-01T04:48:13.331Z,14.70
2018-07-01T04:50:41.754Z,14.70
2018-07-01T04:53:10.177Z,14.90
2018-07-01T04:55:38.565Z,15.10
2018-07-01T04:58:07.314Z,15.40
2018-07-01T05:00:36.168Z,15.40
2018-07-01T05:03:04.587Z,15.40
2018-07-01T05:05:33.010Z,15.50
2018-07-01T05:08:01.418Z,15.70
2018-07-01T05:10:29.812Z,15.90
2018-07-01T05:12:58.207Z,15.90
2018-07-01T05:15:26.603Z,15.80
2018-07-01T05:17:55.017Z,15.90
2018-07-01T05:20:23.406Z,15.90
2018-07-01T05:22:51.789Z,16.00
2018-07-01T05:25:20.156Z,16.00
2018-07-01T05:27:48.539Z,16.10
2018-07-01T05:30:16.925Z,16.30
2018-07-01T05:32:45.308Z,16.40
2018-07-01T05:35:14.596Z,16.30
2018-07-01T05:37:43.008Z,16.30
2018-07-01T05:40:11.425Z,16.60
2018-07-01T05:42:39.805Z,16.70
2018-07-01T05:45:08.290Z,16.80
2018-07-01T05:47:37.561Z,16.90
2018-07-01T05:50:06.101Z,16.90
2018-07-01T05:52:34.550Z,16.90
2018-07-01T05:55:02.997Z,16.80
2018-07-01T05:57:31.405Z,17.00
2018-07-01T06:00:00.616Z,17.00
2018-07-01T06:02:29.293Z,17.10
2018-07-01T06:04:57.892Z,17.10
2018-07-01T06:07:26.338Z,17.20
2018-07-01T06:09:54.830Z,17.20
2018-07-01T06:12:23.427Z,17.30
2018-07-01T06:14:51.844Z,17.30
2018-07-01T06:17:20.357Z,17.30
2018-07-01T06:19:48.876Z,17.30
2018-07-01T06:24:45.632Z,17.40
2018-07-01T06:27:14.060Z,17.50
2018-07-01T06:29:42.549Z,17.50
2018-07-01T06:34:39.225Z,17.70
2018-07-01T06:37:07.636Z,17.50
2018-07-01T06:39:36.229Z,17.50
2018-07-01T06:42:05.207Z,17.60
2018-07-01T06:44:40.415Z,17.80
2018-07-01T06:47:08.866Z,17.80
2018-07-01T06:49:37.305Z,17.80
2018-07-01T06:52:05.744Z,17.90
2018-07-01T06:54:34.165Z,17.80
2018-07-01T06:57:03.378Z,17.80
2018-07-01T06:59:31.786Z,18.00
2018-07-01T07:02:00.205Z,18.00
2018-07-01T07:04:28.624Z,18.00
2018-07-01T07:06:57.066Z,17.80
2018-07-01T07:09:25.520Z,17.80
2018-07-01T07:11:53.924Z,17.90
2018-07-01T07:14:22.397Z,18.00
2018-07-01T07:16:50.847Z,18.10
2018-07-01T07:19:19.314Z,18.40
2018-07-01T07:21:47.692Z,18.40
2018-07-01T07:24:16.102Z,18.60
2018-07-01T07:26:44.476Z,18.70
2018-07-01T07:29:12.916Z,18.80
2018-07-01T07:31:41.345Z,18.70
2018-07-01T07:36:37.882Z,19.20
2018-07-01T07:39:09.002Z,19.20
2018-07-01T07:41:37.352Z,19.30
2018-07-01T07:44:05.789Z,19.40
2018-07-01T07:46:34.701Z,19.50
2018-07-01T07:49:03.072Z,19.70
2018-07-01T07:51:31.515Z,19.50
2018-07-01T07:53:59.928Z,19.30
2018-07-01T07:58:56.471Z,19.00
2018-07-01T08:01:24.891Z,19.00
2018-07-01T08:03:53.277Z,19.20
2018-07-01T08:06:21.695Z,19.40
2018-07-01T08:08:50.059Z,19.60
2018-07-01T08:11:18.435Z,19.80
2018-07-01T08:13:46.786Z,19.90
2018-07-01T08:16:15.336Z,19.90
2018-07-01T08:18:43.710Z,19.80
2018-07-01T08:21:12.102Z,19.90
2018-07-01T08:23:40.533Z,19.80
2018-07-01T08:26:08.925Z,20.00
2018-07-01T08:28:37.246Z,20.20
2018-07-01T08:31:05.640Z,20.30
2018-07-01T08:33:34.555Z,20.20
2018-07-01T08:36:02.954Z,19.90
2018-07-01T08:38:31.328Z,19.60
2018-07-01T08:40:59.751Z,19.40
2018-07-01T08:43:28.173Z,19.40
2018-07-01T08:45:56.637Z,19.60
2018-07-01T08:48:25.009Z,19.90
2018-07-01T08:50:53.420Z,20.20
2018-07-01T08:53:21.779Z,20.50
2018-07-01T08:55:50.167Z,20.80
2018-07-01T08:58:18.507Z,21.00
2018-07-01T09:00:46.914Z,21.10
2018-07-01T09:03:15.373Z,21.30
2018-07-01T09:05:43.757Z,21.30
2018-07-01T09:08:12.126Z,21.40
2018-07-01T09:10:40.556Z,21.10
2018-07-01T09:13:08.929Z,21.30
2018-07-01T09:15:37.292Z,21.70
2018-07-01T09:18:05.680Z,21.60
2018-07-01T09:20:35.002Z,21.70
2018-07-01T09:23:03.521Z,21.70
2018-07-01T09:25:31.873Z,21.80
2018-07-01T09:28:00.253Z,22.00
2018-07-01T09:30:28.716Z,22.40
2018-07-01T09:32:57.088Z,22.40
2018-07-01T09:35:25.445Z,22.80
2018-07-01T09:37:53.814Z,23.10
2018-07-01T09:40:22.231Z,23.30
2018-07-01T09:42:50.603Z,23.10
2018-07-01T09:45:19.117Z,23.00
2018-07-01T09:47:47.556Z,23.20
2018-07-01T09:50:15.958Z,23.50
2018-07-01T09:52:44.358Z,23.50
2018-07-01T09:55:12.805Z,23.70
2018-07-01T09:57:41.226Z,24.00
2018-07-01T10:00:09.620Z,24.30
2018-07-01T10:02:38.043Z,24.10
2018-07-01T10:05:06.426Z,23.70
2018-07-01T10:07:34.797Z,23.20
2018-07-01T10:10:03.169Z,22.70
2018-07-01T10:12:31.549Z,22.50
2018-07-01T10:14:59.911Z,22.40
2018-07-01T10:17:28.370Z,22.20
2018-07-01T10:19:56.733Z,22.10
2018-07-01T10:22:25.157Z,22.10
2018-07-01T10:24:53.588Z,22.00
2018-07-01T10:27:21.911Z,22.00
2018-07-01T10:29:50.308Z,22.10
2018-07-01T10:32:18.686Z,22.40
2018-07-01T10:34:47.080Z,22.40
2018-07-01T10:37:15.554Z,22.40
2018-07-01T10:39:44.061Z,22.30
2018-07-01T10:42:12.530Z,22.40
2018-07-01T10:44:40.954Z,22.80
2018-07-01T10:47:09.854Z,23.30
2018-07-01T10:49:38.238Z,23.60
2018-07-01T10:54:34.918Z,24.00
2018-07-01T10:57:03.333Z,24.40
2018-07-01T10:59:31.708Z,24.70
2018-07-01T11:02:00.087Z,24.70
2018-07-01T11:04:28.448Z,24.80
2018-07-01T11:06:56.815Z,25.00
2018-07-01T11:09:25.164Z,25.30
2018-07-01T11:11:53.522Z,25.20
2018-07-01T11:14:21.941Z,25.60
2018-07-01T11:16:50.461Z,25.50
2018-07-01T11:19:18.887Z,24.90
2018-07-01T11:21:47.335Z,24.50
2018-07-01T11:24:15.688Z,24.70
2018-07-01T11:26:44.139Z,25.30
2018-07-01T11:29:12.517Z,25.30
2018-07-01T11:31:40.950Z,25.20
2018-07-01T11:34:09.288Z,25.50
2018-07-01T11:36:37.634Z,25.80
2018-07-01T11:39:08.208Z,25.90
2018-07-01T11:41:36.570Z,25.90
2018-07-01T11:44:04.955Z,26.00
2018-07-01T11:46:33.506Z,25.90
2018-07-01T11:49:01.905Z,26.10
2018-07-01T11:51:30.265Z,26.10
2018-07-01T11:53:58.724Z,26.20
2018-07-01T11:56:27.124Z,26.40
2018-07-01T11:58:55.451Z,26.40
2018-07-01T12:01:23.905Z,26.30
2018-07-01T12:03:52.320Z,26.00
2018-07-01T12:06:20.806Z,25.60
2018-07-01T12:08:49.156Z,25.00
2018-07-01T12:11:17.508Z,24.10
2018-07-01T12:13:45.889Z,23.90
2018-07-01T12:16:14.275Z,24.10
2018-07-01T12:18:42.630Z,24.30
2018-07-01T12:21:10.993Z,24.40
2018-07-01T12:23:39.396Z,24.40
2018-07-01T12:26:07.783Z,24.60
2018-07-01T12:28:36.143Z,24.20
2018-07-01T12:31:04.612Z,24.00
2018-07-01T12:33:33.021Z,24.10
2018-07-01T12:36:01.501Z,24.20
2018-07-01T12:38:29.899Z,24.20
2018-07-01T12:40:58.327Z,24.30
2018-07-01T12:43:26.721Z,24.20
2018-07-01T12:45:55.881Z,24.10
2018-07-01T12:48:24.228Z,24.20
2018-07-01T12:50:52.725Z,24.20
2018-07-01T12:53:21.061Z,24.10
2018-07-01T12:55:49.528Z,24.10
2018-07-01T12:58:17.847Z,24.20
2018-07-01T13:00:46.240Z,24.60
2018-07-01T13:05:42.762Z,25.50
2018-07-01T13:08:11.143Z,25.30
2018-07-01T13:10:39.581Z,25.00
2018-07-01T13:13:07.948Z,24.70
2018-07-01T13:15:36.411Z,24.30
2018-07-01T13:18:04.897Z,24.20
2018-07-01T13:20:33.257Z,24.10
2018-07-01T13:23:01.956Z,24.00
2018-07-01T13:25:30.357Z,23.90
2018-07-01T13:27:58.708Z,23.80
2018-07-01T13:30:27.053Z,23.50
2018-07-01T13:32:55.415Z,23.40
2018-07-01T13:35:23.777Z,23.60
2018-07-01T13:37:52.160Z,24.10
2018-07-01T13:40:20.510Z,24.60
2018-07-01T13:42:49.086Z,24.70
2018-07-01T13:45:17.474Z,24.50
2018-07-01T13:47:45.931Z,24.40
2018-07-01T13:50:14.320Z,24.10
2018-07-01T13:52:42.949Z,23.70
2018-07-01T13:55:12.478Z,23.50
2018-07-01T13:57:40.883Z,23.40
2018-07-01T14:00:09.689Z,23.40
2018-07-01T14:02:38.126Z,23.50
2018-07-01T14:05:07.008Z,23.70
2018-07-01T14:07:35.381Z,24.20
2018-07-01T14:10:03.818Z,24.60
2018-07-01T14:12:32.178Z,24.90
2018-07-01T14:15:00.637Z,24.90
2018-07-01T14:17:29.108Z,25.20
2018-07-01T14:19:57.463Z,25.20
2018-07-01T14:22:25.850Z,25.00
2018-07-01T14:24:54.217Z,24.80
2018-07-01T14:27:22.644Z,24.50
2018-07-01T14:29:50.969Z,24.00
2018-07-01T14:32:19.323Z,23.90
2018-07-01T14:34:47.716Z,23.80
2018-07-01T14:37:16.092Z,23.60
2018-07-01T14:39:44.446Z,23.30
2018-07-01T14:42:12.807Z,23.10
2018-07-01T14:44:41.157Z,22.90
2018-07-01T14:47:09.560Z,22.80
2018-07-01T14:49:38.024Z,22.70
2018-07-01T14:52:06.384Z,22.90
2018-07-01T14:54:34.766Z,23.00
2018-07-01T14:57:03.747Z,22.90
2018-07-01T14:59:32.123Z,22.70
2018-07-01T15:02:00.551Z,22.50
2018-07-01T15:04:28.994Z,22.60
2018-07-01T15:06:57.347Z,22.50
2018-07-01T15:09:25.784Z,22.30
2018-07-01T15:11:54.147Z,22.30
2018-07-01T15:14:22.568Z,22.60
2018-07-01T15:16:50.919Z,22.90
2018-07-01T15:19:19.284Z,23.20
2018-07-01T15:21:47.659Z,23.50
2018-07-01T15:24:16.055Z,23.70
2018-07-01T15:26:44.416Z,23.90
2018-07-01T15:29:12.880Z,24.20
2018-07-01T15:31:41.256Z,24.30
2018-07-01T15:34:09.659Z,24.10
2018-07-01T15:36:38.104Z,24.20
2018-07-01T15:39:10.658Z,24.30
2018-07-01T15:41:39.060Z,24.60
2018-07-01T15:44:07.530Z,25.00
2018-07-01T15:46:36.304Z,25.30
2018-07-01T15:49:04.729Z,25.40
2018-07-01T15:51:34.483Z,25.50
2018-07-01T15:54:02.964Z,25.50
2018-07-01T15:56:31.345Z,25.70
2018-07-01T15:58:59.847Z,25.50
2018-07-01T16:01:28.215Z,25.40
2018-07-01T16:03:56.592Z,25.30
2018-07-01T16:06:24.968Z,25.00
2018-07-01T16:08:53.334Z,24.80
2018-07-01T16:11:21.710Z,24.80
2018-07-01T16:13:50.071Z,24.80
2018-07-01T16:16:18.504Z,24.50
2018-07-01T16:18:46.849Z,24.40
2018-07-01T16:21:15.350Z,24.30
2018-07-01T16:23:43.694Z,24.30
2018-07-01T16:26:17.540Z,24.00
2018-07-01T16:28:51.360Z,24.00
2018-07-01T16:31:19.779Z,23.80
2018-07-01T16:33:48.145Z,23.40
2018-07-01T16:36:16.595Z,23.20
2018-07-01T16:38:44.967Z,23.20
2018-07-01T16:41:13.388Z,23.20
2018-07-01T16:43:41.760Z,23.00
2018-07-01T16:46:10.193Z,23.00
2018-07-01T16:48:38.548Z,22.90
2018-07-01T16:51:06.933Z,22.80
2018-07-01T16:53:35.408Z,22.80
2018-07-01T16:56:03.933Z,22.80
2018-07-01T16:58:32.279Z,22.70
2018-07-01T17:01:00.688Z,22.50
2018-07-01T17:03:29.132Z,22.40
2018-07-01T17:05:58.053Z,22.20
2018-07-01T17:08:26.440Z,22.20
2018-07-01T17:10:54.860Z,22.20
2018-07-01T17:13:23.375Z,22.20
2018-07-01T17:15:51.994Z,22.10
2018-07-01T17:18:20.417Z,22.00
2018-07-01T17:20:48.752Z,22.00
2018-07-01T17:23:17.174Z,21.90
2018-07-01T17:25:55.213Z,21.90
2018-07-01T17:28:25.180Z,22.00
2018-07-01T17:30:59.005Z,22.00
2018-07-01T17:33:28.361Z,22.10
2018-07-01T17:35:56.696Z,22.00
2018-07-01T17:38:25.203Z,21.80
2018-07-01T17:40:53.674Z,21.80
2018-07-01T17:43:22.421Z,21.70
2018-07-01T17:45:50.780Z,21.70
2018-07-01T17:48:19.231Z,21.70
2018-07-01T17:50:47.619Z,21.50
2018-07-01T17:53:27.400Z,21.50
2018-07-01T17:55:55.935Z,21.50
2018-07-01T17:58:24.562Z,21.30
2018-07-01T18:00:52.965Z,21.30
2018-07-01T18:03:21.417Z,21.30
2018-07-01T18:05:50.078Z,21.10
2018-07-01T18:08:18.638Z,21.10
2018-07-01T18:10:47.046Z,21.00
2018-07-01T18:13:15.400Z,21.10
2018-07-01T18:15:43.751Z,21.10
2018-07-01T18:18:12.300Z,21.10
2018-07-01T18:20:40.676Z,20.90
2018-07-01T18:23:35.842Z,20.80
2018-07-01T18:25:37.463Z,20.50
2018-07-01T18:28:18.878Z,20.40
2018-07-01T18:30:34.239Z,20.30
2018-07-01T18:33:02.595Z,20.20
2018-07-01T18:35:31.049Z,20.20
2018-07-01T18:37:59.502Z,20.10
2018-07-01T18:40:27.940Z,20.10
2018-07-01T18:42:56.277Z,19.90
2018-07-01T18:45:24.640Z,19.90
2018-07-01T18:47:53.017Z,19.90
2018-07-01T18:50:21.399Z,19.80
2018-07-01T18:52:49.787Z,19.80
2018-07-01T18:55:18.190Z,19.80
2018-07-01T18:57:46.651Z,19.80
2018-07-01T19:00:15.431Z,19.70
2018-07-01T19:02:43.908Z,19.60
2018-07-01T19:05:12.390Z,19.40
2018-07-01T19:07:40.828Z,19.40
2018-07-01T19:10:09.300Z,19.30
2018-07-01T19:12:37.670Z,19.20
2018-07-01T19:15:06.218Z,19.20
2018-07-01T19:17:34.616Z,19.10
2018-07-01T19:20:03.064Z,19.00
2018-07-01T19:24:59.563Z,18.80
2018-07-01T19:27:28.004Z,18.60
2018-07-01T19:29:56.443Z,18.50
2018-07-01T19:32:24.898Z,18.40
2018-07-01T19:34:53.271Z,18.40
2018-07-01T19:37:21.703Z,18.30
2018-07-01T19:39:50.232Z,18.30
2018-07-01T19:42:18.721Z,18.20
2018-07-01T19:44:47.056Z,18.10
2018-07-01T19:47:15.509Z,18.00
2018-07-01T19:49:43.901Z,17.90
2018-07-01T19:52:12.281Z,17.80
2018-07-01T19:54:40.696Z,17.70
2018-07-01T19:57:09.048Z,17.60
2018-07-01T19:59:37.485Z,17.50
2018-07-01T20:02:05.962Z,17.40
2018-07-01T20:04:34.345Z,17.30
2018-07-01T20:07:03.036Z,17.20
2018-07-01T20:09:31.414Z,17.20
2018-07-01T20:11:59.797Z,17.20
2018-07-01T20:14:28.330Z,17.10
2018-07-01T20:16:56.765Z,17.10
2018-07-01T20:19:25.137Z,17.00
2018-07-01T20:21:53.494Z,17.00
2018-07-01T20:24:21.856Z,17.00
2018-07-01T20:29:18.457Z,16.80
2018-07-01T20:31:46.837Z,16.70
2018-07-01T20:34:15.186Z,16.60
2018-07-01T20:36:44.184Z,16.60
2018-07-01T20:39:13.476Z,16.40
2018-07-01T20:41:42.295Z,16.40
2018-07-01T20:44:10.790Z,16.40
2018-07-01T20:46:39.229Z,16.30
2018-07-01T20:49:07.665Z,16.20
2018-07-01T20:51:36.022Z,16.10
2018-07-01T20:54:04.400Z,16.00
2018-07-01T20:56:32.777Z,16.00
2018-07-01T20:59:01.221Z,15.90
2018-07-01T21:01:29.657Z,15.90
2018-07-01T21:03:58.018Z,15.80
2018-07-01T21:06:26.576Z,15.80
2018-07-01T21:08:54.942Z,15.80
2018-07-01T21:11:23.313Z,15.80
2018-07-01T21:13:51.765Z,15.70
2018-07-01T21:16:20.173Z,15.60
2018-07-01T21:18:48.596Z,15.60
2018-07-01T21:21:16.981Z,15.50
2018-07-01T21:23:45.359Z,15.50
2018-07-01T21:26:13.747Z,15.40
2018-07-01T21:28:42.134Z,15.40
2018-07-01T21:31:10.752Z,15.30
2018-07-01T21:33:39.216Z,15.30
2018-07-01T21:36:07.712Z,15.30
2018-07-01T21:38:36.137Z,15.20
2018-07-01T21:41:04.531Z,15.20
2018-07-01T21:43:32.927Z,15.20
2018-07-01T21:46:01.387Z,15.10
2018-07-01T21:48:29.834Z,15.00
2018-07-01T21:50:58.213Z,14.90
2018-07-01T21:53:26.636Z,14.90
2018-07-01T21:55:55.010Z,14.80
2018-07-01T21:58:23.398Z,14.80
2018-07-01T22:00:51.873Z,14.90
2018-07-01T22:03:20.267Z,14.80
2018-07-01T22:05:48.630Z,14.70
2018-07-01T22:08:17.035Z,14.70
2018-07-01T22:10:57.509Z,14.60
2018-07-01T22:14:31.511Z,14.60
2018-07-01T22:17:00.274Z,14.60
2018-07-01T22:19:28.731Z,14.50
2018-07-01T22:21:57.669Z,14.50
2018-07-01T22:24:27.353Z,14.40
2018-07-01T22:26:55.824Z,14.40
2018-07-01T22:29:24.239Z,14.40
2018-07-01T22:31:52.612Z,14.30
2018-07-01T22:34:21.511Z,14.30
2018-07-01T22:36:50.199Z,14.20
2018-07-01T22:39:24.687Z,14.20
2018-07-01T22:41:54.301Z,14.20
2018-07-01T22:44:22.776Z,14.20
2018-07-01T22:46:51.880Z,14.10
2018-07-01T22:49:20.321Z,14.10
2018-07-01T22:51:48.730Z,14.00
2018-07-01T22:54:17.157Z,14.10
2018-07-01T22:56:45.499Z,14.10
2018-07-01T22:59:13.875Z,14.00
2018-07-01T23:01:53.536Z,13.90
2018-07-01T23:04:21.945Z,13.90
2018-07-01T23:06:50.359Z,13.90
2018-07-01T23:09:18.776Z,13.90
2018-07-01T23:11:47.139Z,13.80
2018-07-01T23:14:15.510Z,13.70
2018-07-01T23:16:43.919Z,13.70
2018-07-01T23:19:12.361Z,13.60
2018-07-01T23:21:40.968Z,13.80
2018-07-01T23:24:09.435Z,13.70
2018-07-01T23:26:38.843Z,13.70
2018-07-01T23:29:07.234Z,13.70
2018-07-01T23:31:35.628Z,13.70
2018-07-01T23:34:04.652Z,13.60
2018-07-01T23:36:33.090Z,13.50
2018-07-01T23:39:01.455Z,13.50
2018-07-01T23:41:29.951Z,13.40
2018-07-01T23:43:58.384Z,13.40
2018-07-01T23:46:26.762Z,13.40
2018-07-01T23:48:55.158Z,13.40
2018-07-01T23:51:23.541Z,13.40
2018-07-01T23:53:51.896Z,13.30
2018-07-01T23:56:20.258Z,13.20
2018-07-01T23:58:48.651Z,13.10
